Historyczne dane pomiarowe

Dodano dane terminowe – wersja testowa.

Dane z okresu 1951-2019

Wersja bazy: 1.34 [2019-03-16, lista zmian], aktualizacja planowana na 2019-04-15

Dane meteo z obszaru Polski uzyskane na podstawie danych udostępnionych przez Instytut Meteorologii i Gospodarki Wodnej – Państwowy Instytut Badawczy.

 

Wybierz Datę:    

       

TemperaturaWilgotnośćWiatrCiśnienieOpadyŚniegCzas trwania zjawisk
 Stacja t tx tn tng RH VA  wxwx mslp ppp RRR   cm mm wxwxwxwxwxwxwx
1961-08-14 13.4 19.1 7.5- 80.0- 1.7 1.3---- 0.0------------
1961-08-13 13.0 14.6 11.6- 89.3- 7.7 2.7---- 4.0------------
1961-08-12 16.5 20.9 14.1- 90.5- 7.7 2.3---- 15.4------------
1961-08-11 22.4 30.9 18.6- 80.5- 2.7 1.0---- 1.5------------
1961-08-10 23.3 28.9 17.5- 87.3- 0.7 2.7---- 0.0------------
1961-08-09 21.8 27.4 13.5- 78.8- 6.7 0.7---- 1.2------------
1961-08-08 17.1 21.1 15.0- 84.0- 5.3 1.3---- 0.0------------
1961-08-07 21.6 29.4 15.0- 73.3- 3.0 1.3---- 4.5------------
1961-08-06 22.8 30.7 14.0- 68.8- 0.3 2.3---- 0.0------------
1961-08-05 17.9 23.5 13.4- 77.8- 4.7 3.0---- 0.0------------
1961-08-04 16.4 21.6 7.8- 76.5- 4.3 1.7---- 0.0------------
1961-08-03 16.2 21.0 13.1- 81.5- 6.3 3.7---- 0.0------------
1961-08-02 18.5 25.0 8.5- 75.3- 2.3 1.7---- 0.0------------
1961-08-01 14.4 20.0 10.8- 77.8- 4.0 4.7---- 0.0------------
1961-07-31 12.5 14.6 10.9- 94.0- 8.0 4.7---- 7.3------------
1961-07-30 11.4 14.2 10.8- 95.8- 8.0 6.0---- 17.1------------
1961-07-29 14.1 18.6 12.1- 90.3- 8.0 3.3---- 3.8------------
1961-07-28 18.8 24.6 15.7- 86.3- 8.0 2.7---- 13.6------------
1961-07-27 20.7 26.6 12.2- 65.0- 6.7 4.0---- 0.2------------
1961-07-26 17.3 22.5 9.7- 73.5- 6.0 1.7---- 0.0------------
1961-07-25 13.4 16.1 11.4- 77.8- 8.0 2.3---- 0.0------------
1961-07-24 13.2 17.1 10.2- 80.3- 5.7 2.3---- 0.0------------
1961-07-23 14.8 19.5 12.1- 77.0- 4.3 2.3---- 0.0------------
1961-07-22 14.4 19.1 11.4- 88.0- 7.0 4.0---- 8.6------------
1961-07-21 14.5 18.1 10.4- 84.8- 6.3 2.7---- 2.4------------
1961-07-20 15.0 20.0 8.7- 86.0- 5.7 1.3---- 0.5------------
1961-07-19 13.9 18.0 9.5- 90.0- 7.7 1.0---- 3.0------------
1961-07-18 13.5 18.2 8.8- 83.0- 6.3 3.3---- 0.0------------
1961-07-17 15.5 22.5 11.5- 73.0- 4.0 2.3---- 0.0------------
1961-07-16 14.9 20.4 12.9- 86.0- 5.0 3.3---- 0.0------------
1961-07-15 16.6 23.2 11.5- 79.8- 6.0 1.7---- 5.6------------
1961-07-14 14.9 18.6 12.4- 70.5- 2.7 4.7---- 0.0------------
1961-07-13 19.6 28.4 13.2- 81.0- 4.3 4.3---- 18.0------------
1961-07-12 18.2 25.2 11.1- 85.8- 3.7 1.0---- 8.6------------
1961-07-11 15.0 20.5 7.5- 75.8- 3.0 2.7---- 6.5------------
1961-07-10 13.9 18.7 9.2- 79.0- 5.7 3.3---- 0.6------------
1961-07-09 14.1 21.4 8.0- 84.0- 6.7 2.3---- 3.0------------
1961-07-08 14.7 20.5 7.1- 72.3- 2.7 0.3---- 0.0------------
1961-07-07 12.4 17.3 10.3- 78.3- 4.7 3.0---- 0.0------------
1961-07-06 12.3 16.1 7.0- 79.5- 7.3 3.3---- 1.8------------
1961-07-05 13.3 19.6 11.0- 75.8- 4.7 3.3---- 0.0------------
1961-07-04 22.0 29.4 17.5- 78.0- 5.3 2.3---- 25.1------------
1961-07-03 22.6 30.4 12.5- 65.0- 0.7 0.7---- 0.0------------
1961-07-02 21.5 28.4 11.0- 63.0- 0.0 0.0---- 0.0------------
1961-07-01 19.3 26.4 11.5- 66.3- 0.0 1.0---- 0.0------------
1961-06-30 17.3 23.5 9.6- 74.0- 1.0 1.7---- 0.0------------
1961-06-29 15.1 20.1 7.9- 79.3- 3.3 2.7---- 0.0------------
1961-06-28 12.5 20.2 10.3- 87.3- 5.0 4.7---- 3.4------------
1961-06-27 22.8 30.9 15.8- 79.0- 3.0 1.3---- 9.1------------
1961-06-26 23.2 31.4 14.3- 71.8- 4.7 0.7---- 19.2------------
1961-06-25 20.8 29.7 10.2- 64.5- 1.0 3.3---- 0.0------------
1961-06-24 18.0 25.3 11.0- 68.8- 4.7 3.7---- 0.0------------
1961-06-23 17.1 23.5 14.6- 72.8- 5.3 3.7---- 0.0------------
1961-06-22 17.1 23.0 8.5- 71.5- 2.7 1.7---- 3.0------------
1961-06-21 16.7 23.7 5.6- 62.0- 1.3 1.3---- 0.0------------
1961-06-20 14.1 22.6 9.5- 66.8- 1.0 3.3---- 0.0------------
1961-06-19 18.3 25.1 14.2- 73.0- 2.3 4.0---- 0.0------------
1961-06-18 18.9 26.8 9.1- 67.5- 1.3 2.0---- 0.0------------
1961-06-17 14.8 22.4 7.1- 69.0- 1.3 1.3---- 0.0------------
1961-06-16 12.7 18.2 5.6- 70.8- 1.7 2.7---- 0.0------------
699.3 ms

 

Źródłem pochodzenia danych jest Instytut Meteorologii i Gospodarki Wodnej – Państwowy Instytut Badawczy. Dane Instytutu Meteorologii i Gospodarki Wodnej – Państwowego Instytutu Badawczego zostały przetworzone.

Dane źródłowe można odnaleźć na stronie https://dane.imgw.pl